sensor_id;sensor_type;location;lat;lon;timestamp;P1;durP1;ratioP1;P2;durP2;ratioP2
27642;SDS011;15053;48.618;10.024;2023-11-22T00:02:16;16.25;;;10.38;;
27642;SDS011;15053;48.618;10.024;2023-11-22T00:04:43;17.40;;;10.15;;
27642;SDS011;15053;48.618;10.024;2023-11-22T00:07:10;18.42;;;11.25;;
27642;SDS011;15053;48.618;10.024;2023-11-22T00:09:36;18.17;;;10.60;;
27642;SDS011;15053;48.618;10.024;2023-11-22T00:12:04;17.85;;;11.27;;
27642;SDS011;15053;48.618;10.024;2023-11-22T00:14:30;17.15;;;9.88;;
27642;SDS011;15053;48.618;10.024;2023-11-22T00:16:57;18.65;;;9.63;;
27642;SDS011;15053;48.618;10.024;2023-11-22T00:19:24;21.30;;;11.32;;
27642;SDS011;15053;48.618;10.024;2023-11-22T00:21:50;18.42;;;9.60;;
27642;SDS011;15053;48.618;10.024;2023-11-22T00:24:16;15.10;;;9.10;;
27642;SDS011;15053;48.618;10.024;2023-11-22T00:26:44;18.10;;;10.25;;
27642;SDS011;15053;48.618;10.024;2023-11-22T00:29:11;17.27;;;10.35;;
27642;SDS011;15053;48.618;10.024;2023-11-22T00:31:38;20.00;;;11.07;;
27642;SDS011;15053;48.618;10.024;2023-11-22T00:34:04;16.55;;;10.23;;
27642;SDS011;15053;48.618;10.024;2023-11-22T00:36:31;20.52;;;10.88;;
27642;SDS011;15053;48.618;10.024;2023-11-22T00:38:57;16.45;;;9.35;;
27642;SDS011;15053;48.618;10.024;2023-11-22T00:41:24;18.10;;;10.48;;
27642;SDS011;15053;48.618;10.024;2023-11-22T00:43:56;16.63;;;10.70;;
27642;SDS011;15053;48.618;10.024;2023-11-22T00:46:23;16.90;;;9.73;;
27642;SDS011;15053;48.618;10.024;2023-11-22T00:48:49;9.85;;;6.53;;
27642;SDS011;15053;48.618;10.024;2023-11-22T00:51:16;6.15;;;4.53;;
27642;SDS011;15053;48.618;10.024;2023-11-22T00:53:44;5.28;;;3.70;;
27642;SDS011;15053;48.618;10.024;2023-11-22T00:56:10;3.70;;;3.03;;
27642;SDS011;15053;48.618;10.024;2023-11-22T00:58:37;3.53;;;2.88;;
27642;SDS011;15053;48.618;10.024;2023-11-22T01:01:03;4.53;;;2.90;;
27642;SDS011;15053;48.618;10.024;2023-11-22T01:03:30;3.67;;;2.55;;
27642;SDS011;15053;48.618;10.024;2023-11-22T01:05:56;2.92;;;2.40;;
27642;SDS011;15053;48.618;10.024;2023-11-22T01:08:24;3.03;;;2.25;;
27642;SDS011;15053;48.618;10.024;2023-11-22T01:10:50;5.10;;;2.50;;
27642;SDS011;15053;48.618;10.024;2023-11-22T01:13:17;5.35;;;3.35;;
27642;SDS011;15053;48.618;10.024;2023-11-22T01:15:44;4.22;;;2.72;;
27642;SDS011;15053;48.618;10.024;2023-11-22T01:18:13;3.35;;;2.90;;
27642;SDS011;15053;48.618;10.024;2023-11-22T01:20:40;2.88;;;2.10;;
27642;SDS011;15053;48.618;10.024;2023-11-22T01:23:06;3.58;;;2.42;;
27642;SDS011;15053;48.618;10.024;2023-11-22T01:25:33;3.70;;;2.00;;
27642;SDS011;15053;48.618;10.024;2023-11-22T01:27:59;2.05;;;1.50;;
27642;SDS011;15053;48.618;10.024;2023-11-22T01:30:26;3.03;;;1.95;;
27642;SDS011;15053;48.618;10.024;2023-11-22T01:32:55;2.58;;;2.10;;
27642;SDS011;15053;48.618;10.024;2023-11-22T01:35:21;2.50;;;1.77;;
27642;SDS011;15053;48.618;10.024;2023-11-22T01:37:48;2.88;;;2.53;;
27642;SDS011;15053;48.618;10.024;2023-11-22T01:40:15;3.58;;;2.05;;
27642;SDS011;15053;48.618;10.024;2023-11-22T01:42:42;3.08;;;2.50;;
27642;SDS011;15053;48.618;10.024;2023-11-22T01:45:09;4.00;;;2.80;;
27642;SDS011;15053;48.618;10.024;2023-11-22T01:47:36;4.15;;;2.47;;
27642;SDS011;15053;48.618;10.024;2023-11-22T01:50:05;6.90;;;3.50;;
27642;SDS011;15053;48.618;10.024;2023-11-22T01:52:32;3.30;;;2.38;;
27642;SDS011;15053;48.618;10.024;2023-11-22T01:55:00;3.53;;;2.28;;
27642;SDS011;15053;48.618;10.024;2023-11-22T02:00:03;3.50;;;2.45;;
27642;SDS011;15053;48.618;10.024;2023-11-22T02:02:40;2.70;;;1.98;;
27642;SDS011;15053;48.618;10.024;2023-11-22T02:05:09;3.67;;;2.35;;
27642;SDS011;15053;48.618;10.024;2023-11-22T02:07:38;4.25;;;2.88;;
27642;SDS011;15053;48.618;10.024;2023-11-22T02:10:06;4.53;;;2.97;;
27642;SDS011;15053;48.618;10.024;2023-11-22T02:12:33;4.32;;;2.90;;
27642;SDS011;15053;48.618;10.024;2023-11-22T02:15:00;6.20;;;3.08;;
27642;SDS011;15053;48.618;10.024;2023-11-22T02:17:26;3.63;;;2.72;;
27642;SDS011;15053;48.618;10.024;2023-11-22T02:19:53;4.82;;;3.15;;
27642;SDS011;15053;48.618;10.024;2023-11-22T02:22:19;5.35;;;3.60;;
27642;SDS011;15053;48.618;10.024;2023-11-22T02:24:46;4.55;;;3.00;;
27642;SDS011;15053;48.618;10.024;2023-11-22T02:27:12;4.97;;;3.30;;
27642;SDS011;15053;48.618;10.024;2023-11-22T02:29:39;5.88;;;3.65;;
27642;SDS011;15053;48.618;10.024;2023-11-22T02:32:06;4.35;;;3.05;;
27642;SDS011;15053;48.618;10.024;2023-11-22T02:34:33;4.78;;;3.30;;
27642;SDS011;15053;48.618;10.024;2023-11-22T02:36:59;5.72;;;3.63;;
27642;SDS011;15053;48.618;10.024;2023-11-22T02:39:32;5.18;;;3.42;;
27642;SDS011;15053;48.618;10.024;2023-11-22T02:42:19;5.80;;;3.22;;
27642;SDS011;15053;48.618;10.024;2023-11-22T02:44:45;5.82;;;3.30;;
27642;SDS011;15053;48.618;10.024;2023-11-22T02:47:12;4.18;;;3.20;;
27642;SDS011;15053;48.618;10.024;2023-11-22T02:49:38;6.57;;;3.33;;
27642;SDS011;15053;48.618;10.024;2023-11-22T02:52:05;6.65;;;3.92;;
27642;SDS011;15053;48.618;10.024;2023-11-22T02:54:32;5.18;;;3.35;;
27642;SDS011;15053;48.618;10.024;2023-11-22T02:56:58;4.90;;;3.15;;
27642;SDS011;15053;48.618;10.024;2023-11-22T02:59:26;5.57;;;3.28;;
27642;SDS011;15053;48.618;10.024;2023-11-22T03:01:53;5.47;;;3.38;;
27642;SDS011;15053;48.618;10.024;2023-11-22T03:04:19;4.60;;;3.33;;
27642;SDS011;15053;48.618;10.024;2023-11-22T03:06:46;4.10;;;3.10;;
27642;SDS011;15053;48.618;10.024;2023-11-22T03:09:12;6.95;;;3.85;;
27642;SDS011;15053;48.618;10.024;2023-11-22T03:11:40;7.05;;;4.05;;
27642;SDS011;15053;48.618;10.024;2023-11-22T03:14:07;9.07;;;4.63;;
27642;SDS011;15053;48.618;10.024;2023-11-22T03:16:33;9.85;;;5.43;;
27642;SDS011;15053;48.618;10.024;2023-11-22T03:19:00;12.27;;;5.22;;
27642;SDS011;15053;48.618;10.024;2023-11-22T03:21:28;9.73;;;6.07;;
27642;SDS011;15053;48.618;10.024;2023-11-22T03:23:55;7.95;;;5.38;;
27642;SDS011;15053;48.618;10.024;2023-11-22T03:26:22;9.30;;;5.18;;
27642;SDS011;15053;48.618;10.024;2023-11-22T03:28:48;7.90;;;5.25;;
27642;SDS011;15053;48.618;10.024;2023-11-22T03:31:15;10.45;;;6.13;;
27642;SDS011;15053;48.618;10.024;2023-11-22T03:33:43;9.95;;;6.28;;
27642;SDS011;15053;48.618;10.024;2023-11-22T03:36:09;10.05;;;5.72;;
27642;SDS011;15053;48.618;10.024;2023-11-22T03:38:38;12.25;;;5.97;;
27642;SDS011;15053;48.618;10.024;2023-11-22T03:41:05;10.90;;;5.75;;
27642;SDS011;15053;48.618;10.024;2023-11-22T03:43:32;10.73;;;6.53;;
27642;SDS011;15053;48.618;10.024;2023-11-22T03:45:59;9.40;;;6.80;;
27642;SDS011;15053;48.618;10.024;2023-11-22T03:48:25;9.27;;;6.47;;
27642;SDS011;15053;48.618;10.024;2023-11-22T03:50:52;11.07;;;6.53;;
27642;SDS011;15053;48.618;10.024;2023-11-22T03:53:19;11.82;;;6.82;;
27642;SDS011;15053;48.618;10.024;2023-11-22T03:55:51;10.15;;;7.25;;
27642;SDS011;15053;48.618;10.024;2023-11-22T03:58:18;10.98;;;7.22;;
27642;SDS011;15053;48.618;10.024;2023-11-22T04:00:45;10.88;;;6.95;;
27642;SDS011;15053;48.618;10.024;2023-11-22T04:03:11;10.95;;;7.47;;
27642;SDS011;15053;48.618;10.024;2023-11-22T04:05:38;10.93;;;8.35;;
27642;SDS011;15053;48.618;10.024;2023-11-22T04:08:05;11.35;;;7.93;;
27642;SDS011;15053;48.618;10.024;2023-11-22T04:10:32;12.93;;;8.55;;
27642;SDS011;15053;48.618;10.024;2023-11-22T04:12:58;14.10;;;9.00;;
27642;SDS011;15053;48.618;10.024;2023-11-22T04:15:25;13.13;;;8.30;;
27642;SDS011;15053;48.618;10.024;2023-11-22T04:17:53;15.40;;;8.80;;
27642;SDS011;15053;48.618;10.024;2023-11-22T04:20:23;13.27;;;8.75;;
27642;SDS011;15053;48.618;10.024;2023-11-22T04:22:49;14.07;;;8.70;;
27642;SDS011;15053;48.618;10.024;2023-11-22T04:25:17;14.90;;;9.82;;
27642;SDS011;15053;48.618;10.024;2023-11-22T04:27:44;15.40;;;8.68;;
27642;SDS011;15053;48.618;10.024;2023-11-22T04:30:11;14.00;;;8.48;;
27642;SDS011;15053;48.618;10.024;2023-11-22T04:32:41;15.65;;;8.10;;
27642;SDS011;15053;48.618;10.024;2023-11-22T04:35:11;14.48;;;8.18;;
27642;SDS011;15053;48.618;10.024;2023-11-22T04:37:38;16.02;;;9.43;;
27642;SDS011;15053;48.618;10.024;2023-11-22T04:40:04;14.35;;;8.30;;
27642;SDS011;15053;48.618;10.024;2023-11-22T04:42:35;13.90;;;8.45;;
27642;SDS011;15053;48.618;10.024;2023-11-22T04:45:06;16.25;;;8.88;;
27642;SDS011;15053;48.618;10.024;2023-11-22T04:47:33;15.60;;;8.23;;
27642;SDS011;15053;48.618;10.024;2023-11-22T04:50:00;14.52;;;9.30;;
27642;SDS011;15053;48.618;10.024;2023-11-22T04:52:26;14.55;;;8.82;;
27642;SDS011;15053;48.618;10.024;2023-11-22T04:54:55;14.85;;;7.97;;
27642;SDS011;15053;48.618;10.024;2023-11-22T04:57:22;12.30;;;7.22;;
27642;SDS011;15053;48.618;10.024;2023-11-22T04:59:48;12.68;;;7.80;;
27642;SDS011;15053;48.618;10.024;2023-11-22T05:02:14;12.25;;;7.53;;
27642;SDS011;15053;48.618;10.024;2023-11-22T05:04:42;12.20;;;7.75;;
27642;SDS011;15053;48.618;10.024;2023-11-22T05:07:09;13.00;;;7.43;;
27642;SDS011;15053;48.618;10.024;2023-11-22T05:09:35;12.30;;;7.70;;
27642;SDS011;15053;48.618;10.024;2023-11-22T05:12:02;14.77;;;7.63;;
27642;SDS011;15053;48.618;10.024;2023-11-22T05:14:29;12.88;;;8.55;;
27642;SDS011;15053;48.618;10.024;2023-11-22T05:16:56;13.13;;;7.72;;
27642;SDS011;15053;48.618;10.024;2023-11-22T05:19:23;12.30;;;7.00;;
27642;SDS011;15053;48.618;10.024;2023-11-22T05:21:49;11.70;;;6.90;;
27642;SDS011;15053;48.618;10.024;2023-11-22T05:24:16;14.60;;;7.30;;
27642;SDS011;15053;48.618;10.024;2023-11-22T05:26:42;9.38;;;6.40;;
27642;SDS011;15053;48.618;10.024;2023-11-22T05:29:08;12.18;;;7.13;;
27642;SDS011;15053;48.618;10.024;2023-11-22T05:31:36;11.23;;;7.38;;
27642;SDS011;15053;48.618;10.024;2023-11-22T05:34:03;11.00;;;7.45;;
27642;SDS011;15053;48.618;10.024;2023-11-22T05:36:30;14.85;;;7.20;;
27642;SDS011;15053;48.618;10.024;2023-11-22T05:38:56;10.70;;;6.68;;
27642;SDS011;15053;48.618;10.024;2023-11-22T05:41:26;10.15;;;6.18;;
27642;SDS011;15053;48.618;10.024;2023-11-22T05:43:52;11.10;;;6.00;;
27642;SDS011;15053;48.618;10.024;2023-11-22T05:46:19;9.50;;;5.22;;
27642;SDS011;15053;48.618;10.024;2023-11-22T05:48:51;10.85;;;5.85;;
27642;SDS011;15053;48.618;10.024;2023-11-22T05:51:18;9.75;;;5.40;;
27642;SDS011;15053;48.618;10.024;2023-11-22T05:53:45;9.23;;;6.07;;
27642;SDS011;15053;48.618;10.024;2023-11-22T05:56:12;9.23;;;5.85;;
27642;SDS011;15053;48.618;10.024;2023-11-22T05:58:38;10.02;;;6.18;;
27642;SDS011;15053;48.618;10.024;2023-11-22T06:01:05;10.02;;;6.22;;
27642;SDS011;15053;48.618;10.024;2023-11-22T06:03:32;10.07;;;6.50;;
27642;SDS011;15053;48.618;10.024;2023-11-22T06:06:01;11.75;;;5.68;;
27642;SDS011;15053;48.618;10.024;2023-11-22T06:08:31;9.43;;;5.77;;
27642;SDS011;15053;48.618;10.024;2023-11-22T06:10:58;9.65;;;5.45;;
27642;SDS011;15053;48.618;10.024;2023-11-22T06:13:26;7.88;;;5.20;;
27642;SDS011;15053;48.618;10.024;2023-11-22T06:15:52;9.30;;;4.70;;
27642;SDS011;15053;48.618;10.024;2023-11-22T06:18:19;7.40;;;4.40;;
27642;SDS011;15053;48.618;10.024;2023-11-22T06:20:45;6.53;;;4.20;;
27642;SDS011;15053;48.618;10.024;2023-11-22T06:23:14;6.70;;;4.40;;
27642;SDS011;15053;48.618;10.024;2023-11-22T06:25:41;5.40;;;4.10;;
27642;SDS011;15053;48.618;10.024;2023-11-22T06:28:09;8.70;;;5.40;;
27642;SDS011;15053;48.618;10.024;2023-11-22T06:30:35;6.70;;;4.05;;
27642;SDS011;15053;48.618;10.024;2023-11-22T06:33:02;4.65;;;3.33;;
27642;SDS011;15053;48.618;10.024;2023-11-22T06:35:28;5.45;;;3.55;;
27642;SDS011;15053;48.618;10.024;2023-11-22T06:37:55;7.90;;;4.28;;
27642;SDS011;15053;48.618;10.024;2023-11-22T06:40:21;10.63;;;5.93;;
27642;SDS011;15053;48.618;10.024;2023-11-22T06:42:49;7.13;;;4.97;;
27642;SDS011;15053;48.618;10.024;2023-11-22T06:45:15;7.18;;;5.00;;
27642;SDS011;15053;48.618;10.024;2023-11-22T06:47:42;5.78;;;3.67;;
27642;SDS011;15053;48.618;10.024;2023-11-22T06:50:09;7.65;;;4.25;;
27642;SDS011;15053;48.618;10.024;2023-11-22T06:52:40;6.78;;;4.30;;
27642;SDS011;15053;48.618;10.024;2023-11-22T06:55:07;7.07;;;4.07;;
27642;SDS011;15053;48.618;10.024;2023-11-22T06:57:35;7.10;;;4.45;;
27642;SDS011;15053;48.618;10.024;2023-11-22T07:00:02;7.93;;;4.28;;
27642;SDS011;15053;48.618;10.024;2023-11-22T07:02:34;6.53;;;4.25;;
27642;SDS011;15053;48.618;10.024;2023-11-22T07:05:02;7.25;;;4.55;;
27642;SDS011;15053;48.618;10.024;2023-11-22T07:07:29;5.95;;;4.10;;
27642;SDS011;15053;48.618;10.024;2023-11-22T07:09:56;9.63;;;4.40;;
27642;SDS011;15053;48.618;10.024;2023-11-22T07:12:26;6.78;;;3.90;;
27642;SDS011;15053;48.618;10.024;2023-11-22T07:14:56;8.80;;;4.15;;
27642;SDS011;15053;48.618;10.024;2023-11-22T07:17:22;4.25;;;3.22;;
27642;SDS011;15053;48.618;10.024;2023-11-22T07:19:49;4.97;;;3.72;;
27642;SDS011;15053;48.618;10.024;2023-11-22T07:22:15;5.88;;;3.38;;
27642;SDS011;15053;48.618;10.024;2023-11-22T07:24:43;6.93;;;3.50;;
27642;SDS011;15053;48.618;10.024;2023-11-22T07:27:10;5.15;;;3.47;;
27642;SDS011;15053;48.618;10.024;2023-11-22T07:29:43;5.18;;;3.63;;
27642;SDS011;15053;48.618;10.024;2023-11-22T07:34:39;8.40;;;3.63;;
27642;SDS011;15053;48.618;10.024;2023-11-22T07:37:07;9.43;;;5.47;;
27642;SDS011;15053;48.618;10.024;2023-11-22T07:39:34;9.18;;;4.72;;
27642;SDS011;15053;48.618;10.024;2023-11-22T07:42:02;4.70;;;3.60;;
27642;SDS011;15053;48.618;10.024;2023-11-22T07:44:29;5.95;;;4.03;;
27642;SDS011;15053;48.618;10.024;2023-11-22T07:46:59;4.57;;;3.72;;
27642;SDS011;15053;48.618;10.024;2023-11-22T07:49:26;5.22;;;3.70;;
27642;SDS011;15053;48.618;10.024;2023-11-22T07:51:53;5.65;;;3.88;;
27642;SDS011;15053;48.618;10.024;2023-11-22T07:54:19;6.18;;;4.10;;
27642;SDS011;15053;48.618;10.024;2023-11-22T07:56:48;7.90;;;4.57;;
27642;SDS011;15053;48.618;10.024;2023-11-22T07:59:15;5.65;;;3.78;;
27642;SDS011;15053;48.618;10.024;2023-11-22T08:01:42;5.82;;;3.83;;
27642;SDS011;15053;48.618;10.024;2023-11-22T08:04:14;5.68;;;4.10;;
27642;SDS011;15053;48.618;10.024;2023-11-22T08:06:43;7.00;;;4.50;;
27642;SDS011;15053;48.618;10.024;2023-11-22T08:09:09;5.45;;;4.20;;
27642;SDS011;15053;48.618;10.024;2023-11-22T08:11:36;8.70;;;5.07;;
27642;SDS011;15053;48.618;10.024;2023-11-22T08:14:03;7.32;;;5.13;;
27642;SDS011;15053;48.618;10.024;2023-11-22T08:16:30;7.75;;;4.82;;
27642;SDS011;15053;48.618;10.024;2023-11-22T08:18:56;6.75;;;4.95;;
27642;SDS011;15053;48.618;10.024;2023-11-22T08:21:23;9.93;;;4.90;;
27642;SDS011;15053;48.618;10.024;2023-11-22T08:23:49;7.68;;;4.32;;
27642;SDS011;15053;48.618;10.024;2023-11-22T08:26:16;6.57;;;4.65;;
27642;SDS011;15053;48.618;10.024;2023-11-22T08:28:43;7.85;;;5.47;;
27642;SDS011;15053;48.618;10.024;2023-11-22T08:31:09;8.75;;;4.53;;
27642;SDS011;15053;48.618;10.024;2023-11-22T08:33:36;6.82;;;4.32;;
27642;SDS011;15053;48.618;10.024;2023-11-22T08:36:04;9.20;;;5.22;;
27642;SDS011;15053;48.618;10.024;2023-11-22T08:38:32;8.60;;;5.88;;
27642;SDS011;15053;48.618;10.024;2023-11-22T08:41:04;6.93;;;4.70;;
27642;SDS011;15053;48.618;10.024;2023-11-22T08:43:32;6.80;;;4.43;;
27642;SDS011;15053;48.618;10.024;2023-11-22T08:46:00;6.55;;;4.22;;
27642;SDS011;15053;48.618;10.024;2023-11-22T08:48:39;8.98;;;4.57;;
27642;SDS011;15053;48.618;10.024;2023-11-22T08:51:07;5.95;;;4.18;;
27642;SDS011;15053;48.618;10.024;2023-11-22T08:53:34;4.65;;;3.40;;
27642;SDS011;15053;48.618;10.024;2023-11-22T08:56:01;3.42;;;3.13;;
27642;SDS011;15053;48.618;10.024;2023-11-22T08:58:31;5.70;;;3.83;;
27642;SDS011;15053;48.618;10.024;2023-11-22T09:00:57;6.93;;;3.97;;
27642;SDS011;15053;48.618;10.024;2023-11-22T09:03:24;5.30;;;3.42;;
27642;SDS011;15053;48.618;10.024;2023-11-22T09:05:51;9.15;;;4.32;;
27642;SDS011;15053;48.618;10.024;2023-11-22T09:08:19;6.43;;;4.70;;
27642;SDS011;15053;48.618;10.024;2023-11-22T09:10:52;4.75;;;3.63;;
27642;SDS011;15053;48.618;10.024;2023-11-22T09:13:19;6.78;;;4.63;;
27642;SDS011;15053;48.618;10.024;2023-11-22T09:15:47;7.03;;;4.28;;
27642;SDS011;15053;48.618;10.024;2023-11-22T09:18:13;10.15;;;4.68;;
27642;SDS011;15053;48.618;10.024;2023-11-22T09:20:41;6.50;;;4.78;;
27642;SDS011;15053;48.618;10.024;2023-11-22T09:23:10;8.48;;;5.75;;
27642;SDS011;15053;48.618;10.024;2023-11-22T09:25:37;5.57;;;4.60;;
27642;SDS011;15053;48.618;10.024;2023-11-22T09:28:05;7.18;;;4.97;;
27642;SDS011;15053;48.618;10.024;2023-11-22T09:30:33;6.18;;;4.50;;
27642;SDS011;15053;48.618;10.024;2023-11-22T09:33:08;6.22;;;4.45;;
27642;SDS011;15053;48.618;10.024;2023-11-22T09:35:37;5.95;;;4.50;;
27642;SDS011;15053;48.618;10.024;2023-11-22T09:38:05;7.75;;;4.85;;
27642;SDS011;15053;48.618;10.024;2023-11-22T09:40:42;6.80;;;5.05;;
27642;SDS011;15053;48.618;10.024;2023-11-22T09:43:12;7.22;;;5.15;;
27642;SDS011;15053;48.618;10.024;2023-11-22T09:45:51;7.55;;;5.00;;
27642;SDS011;15053;48.618;10.024;2023-11-22T09:48:24;7.13;;;5.05;;
27642;SDS011;15053;48.618;10.024;2023-11-22T09:51:05;6.88;;;5.60;;
27642;SDS011;15053;48.618;10.024;2023-11-22T09:53:56;8.07;;;5.28;;
27642;SDS011;15053;48.618;10.024;2023-11-22T09:56:27;8.80;;;5.80;;
27642;SDS011;15053;48.618;10.024;2023-11-22T09:58:55;8.65;;;5.95;;
27642;SDS011;15053;48.618;10.024;2023-11-22T10:01:23;19.73;;;10.23;;
27642;SDS011;15053;48.618;10.024;2023-11-22T10:03:50;9.48;;;5.88;;
27642;SDS011;15053;48.618;10.024;2023-11-22T10:06:17;9.40;;;5.85;;
27642;SDS011;15053;48.618;10.024;2023-11-22T10:08:44;7.78;;;5.53;;
27642;SDS011;15053;48.618;10.024;2023-11-22T10:11:16;11.23;;;6.22;;
27642;SDS011;15053;48.618;10.024;2023-11-22T10:13:48;9.13;;;5.57;;
27642;SDS011;15053;48.618;10.024;2023-11-22T10:16:16;8.45;;;6.00;;
27642;SDS011;15053;48.618;10.024;2023-11-22T10:18:45;7.22;;;4.65;;
27642;SDS011;15053;48.618;10.024;2023-11-22T10:21:23;9.65;;;5.85;;
27642;SDS011;15053;48.618;10.024;2023-11-22T10:23:55;8.52;;;6.05;;
27642;SDS011;15053;48.618;10.024;2023-11-22T10:26:24;8.63;;;5.80;;
27642;SDS011;15053;48.618;10.024;2023-11-22T10:28:53;10.48;;;7.07;;
27642;SDS011;15053;48.618;10.024;2023-11-22T10:31:21;11.43;;;6.80;;
27642;SDS011;15053;48.618;10.024;2023-11-22T10:33:48;11.05;;;6.38;;
27642;SDS011;15053;48.618;10.024;2023-11-22T10:36:16;9.20;;;5.68;;
27642;SDS011;15053;48.618;10.024;2023-11-22T10:38:47;9.82;;;6.07;;
27642;SDS011;15053;48.618;10.024;2023-11-22T10:41:14;11.20;;;6.13;;
27642;SDS011;15053;48.618;10.024;2023-11-22T10:43:41;8.20;;;5.20;;
27642;SDS011;15053;48.618;10.024;2023-11-22T10:46:12;8.95;;;5.55;;
27642;SDS011;15053;48.618;10.024;2023-11-22T10:48:40;9.90;;;5.93;;
27642;SDS011;15053;48.618;10.024;2023-11-22T10:51:06;8.00;;;4.80;;
27642;SDS011;15053;48.618;10.024;2023-11-22T10:53:48;7.35;;;4.30;;
27642;SDS011;15053;48.618;10.024;2023-11-22T10:56:17;8.23;;;5.03;;
27642;SDS011;15053;48.618;10.024;2023-11-22T10:58:51;9.32;;;5.13;;
27642;SDS011;15053;48.618;10.024;2023-11-22T11:01:21;10.18;;;5.88;;
27642;SDS011;15053;48.618;10.024;2023-11-22T11:03:55;11.73;;;6.40;;
27642;SDS011;15053;48.618;10.024;2023-11-22T11:06:28;9.45;;;6.00;;
27642;SDS011;15053;48.618;10.024;2023-11-22T11:09:00;9.77;;;5.50;;
27642;SDS011;15053;48.618;10.024;2023-11-22T11:11:27;6.65;;;4.63;;
27642;SDS011;15053;48.618;10.024;2023-11-22T11:13:55;7.45;;;4.97;;
27642;SDS011;15053;48.618;10.024;2023-11-22T11:16:23;7.13;;;5.10;;
27642;SDS011;15053;48.618;10.024;2023-11-22T11:18:50;8.07;;;5.25;;
27642;SDS011;15053;48.618;10.024;2023-11-22T11:21:17;8.93;;;5.55;;
27642;SDS011;15053;48.618;10.024;2023-11-22T11:23:45;9.32;;;5.68;;
27642;SDS011;15053;48.618;10.024;2023-11-22T11:26:16;10.15;;;7.13;;
27642;SDS011;15053;48.618;10.024;2023-11-22T11:28:48;8.57;;;5.40;;
27642;SDS011;15053;48.618;10.024;2023-11-22T11:31:16;11.65;;;6.47;;
27642;SDS011;15053;48.618;10.024;2023-11-22T11:36:27;8.70;;;5.45;;
27642;SDS011;15053;48.618;10.024;2023-11-22T11:38:55;6.20;;;4.28;;
27642;SDS011;15053;48.618;10.024;2023-11-22T11:41:25;7.80;;;5.65;;
27642;SDS011;15053;48.618;10.024;2023-11-22T11:43:53;8.32;;;5.70;;
27642;SDS011;15053;48.618;10.024;2023-11-22T11:46:20;10.02;;;5.72;;
27642;SDS011;15053;48.618;10.024;2023-11-22T11:48:50;8.48;;;6.60;;
27642;SDS011;15053;48.618;10.024;2023-11-22T11:53:45;8.60;;;6.07;;
27642;SDS011;15053;48.618;10.024;2023-11-22T11:56:13;9.63;;;7.10;;
27642;SDS011;15053;48.618;10.024;2023-11-22T11:58:42;14.65;;;9.48;;
27642;SDS011;15053;48.618;10.024;2023-11-22T12:01:13;16.17;;;10.17;;
27642;SDS011;15053;48.618;10.024;2023-11-22T12:03:41;8.50;;;6.40;;
27642;SDS011;15053;48.618;10.024;2023-11-22T12:06:07;11.20;;;6.85;;
27642;SDS011;15053;48.618;10.024;2023-11-22T12:08:34;9.45;;;6.18;;
27642;SDS011;15053;48.618;10.024;2023-11-22T12:11:04;8.45;;;6.63;;
27642;SDS011;15053;48.618;10.024;2023-11-22T12:13:34;10.00;;;7.15;;
27642;SDS011;15053;48.618;10.024;2023-11-22T12:16:04;12.35;;;7.97;;
27642;SDS011;15053;48.618;10.024;2023-11-22T12:18:41;16.23;;;10.38;;
27642;SDS011;15053;48.618;10.024;2023-11-22T12:21:14;24.58;;;12.00;;
27642;SDS011;15053;48.618;10.024;2023-11-22T12:23:42;14.75;;;8.40;;
27642;SDS011;15053;48.618;10.024;2023-11-22T12:26:12;12.15;;;7.35;;
27642;SDS011;15053;48.618;10.024;2023-11-22T12:28:40;12.73;;;6.90;;
27642;SDS011;15053;48.618;10.024;2023-11-22T12:31:18;13.65;;;8.77;;
27642;SDS011;15053;48.618;10.024;2023-11-22T12:33:45;15.07;;;9.80;;
27642;SDS011;15053;48.618;10.024;2023-11-22T12:38:43;12.77;;;8.38;;
27642;SDS011;15053;48.618;10.024;2023-11-22T12:41:10;12.07;;;7.95;;
27642;SDS011;15053;48.618;10.024;2023-11-22T12:43:36;12.82;;;7.85;;
27642;SDS011;15053;48.618;10.024;2023-11-22T12:46:16;13.18;;;8.35;;
27642;SDS011;15053;48.618;10.024;2023-11-22T12:48:44;13.10;;;9.05;;
27642;SDS011;15053;48.618;10.024;2023-11-22T12:51:14;10.98;;;8.27;;
27642;SDS011;15053;48.618;10.024;2023-11-22T12:56:12;12.02;;;8.27;;
27642;SDS011;15053;48.618;10.024;2023-11-22T12:58:39;12.85;;;7.90;;
27642;SDS011;15053;48.618;10.024;2023-11-22T13:01:05;14.57;;;9.45;;
27642;SDS011;15053;48.618;10.024;2023-11-22T13:03:32;15.48;;;9.43;;
27642;SDS011;15053;48.618;10.024;2023-11-22T13:06:00;15.05;;;9.20;;
27642;SDS011;15053;48.618;10.024;2023-11-22T13:08:27;13.90;;;8.90;;
27642;SDS011;15053;48.618;10.024;2023-11-22T13:10:56;12.40;;;8.45;;
27642;SDS011;15053;48.618;10.024;2023-11-22T13:13:25;13.43;;;8.52;;
27642;SDS011;15053;48.618;10.024;2023-11-22T13:15:54;19.15;;;10.13;;
27642;SDS011;15053;48.618;10.024;2023-11-22T13:18:20;14.18;;;9.40;;
27642;SDS011;15053;48.618;10.024;2023-11-22T13:20:47;17.17;;;9.52;;
27642;SDS011;15053;48.618;10.024;2023-11-22T13:23:15;15.23;;;10.38;;
27642;SDS011;15053;48.618;10.024;2023-11-22T13:25:42;14.23;;;8.98;;
27642;SDS011;15053;48.618;10.024;2023-11-22T13:28:09;15.90;;;10.07;;
27642;SDS011;15053;48.618;10.024;2023-11-22T13:30:35;15.48;;;9.50;;
27642;SDS011;15053;48.618;10.024;2023-11-22T13:33:02;13.00;;;8.88;;
27642;SDS011;15053;48.618;10.024;2023-11-22T13:35:29;16.00;;;9.30;;
27642;SDS011;15053;48.618;10.024;2023-11-22T13:37:58;15.93;;;8.88;;
27642;SDS011;15053;48.618;10.024;2023-11-22T13:40:25;17.83;;;10.15;;
27642;SDS011;15053;48.618;10.024;2023-11-22T13:42:56;13.13;;;8.93;;
27642;SDS011;15053;48.618;10.024;2023-11-22T13:45:23;26.38;;;12.98;;
27642;SDS011;15053;48.618;10.024;2023-11-22T13:47:51;20.48;;;10.95;;
27642;SDS011;15053;48.618;10.024;2023-11-22T13:50:25;22.23;;;11.30;;
27642;SDS011;15053;48.618;10.024;2023-11-22T13:52:53;45.75;;;20.50;;
27642;SDS011;15053;48.618;10.024;2023-11-22T13:55:21;30.13;;;15.88;;
27642;SDS011;15053;48.618;10.024;2023-11-22T13:57:49;18.35;;;11.35;;
27642;SDS011;15053;48.618;10.024;2023-11-22T14:00:18;16.90;;;9.77;;
27642;SDS011;15053;48.618;10.024;2023-11-22T14:02:53;14.10;;;8.90;;
27642;SDS011;15053;48.618;10.024;2023-11-22T14:05:23;13.82;;;9.25;;
27642;SDS011;15053;48.618;10.024;2023-11-22T14:07:52;14.90;;;9.60;;
27642;SDS011;15053;48.618;10.024;2023-11-22T14:10:20;12.25;;;8.60;;
27642;SDS011;15053;48.618;10.024;2023-11-22T14:12:49;12.35;;;7.43;;
27642;SDS011;15053;48.618;10.024;2023-11-22T14:15:16;12.85;;;8.25;;
27642;SDS011;15053;48.618;10.024;2023-11-22T14:17:42;11.82;;;7.53;;
27642;SDS011;15053;48.618;10.024;2023-11-22T14:20:10;13.35;;;7.63;;
27642;SDS011;15053;48.618;10.024;2023-11-22T14:22:37;14.75;;;8.35;;
27642;SDS011;15053;48.618;10.024;2023-11-22T14:25:05;14.27;;;8.48;;
27642;SDS011;15053;48.618;10.024;2023-11-22T14:27:43;13.23;;;8.15;;
27642;SDS011;15053;48.618;10.024;2023-11-22T14:30:12;16.55;;;8.43;;
27642;SDS011;15053;48.618;10.024;2023-11-22T14:32:43;14.30;;;9.43;;
27642;SDS011;15053;48.618;10.024;2023-11-22T14:35:10;15.93;;;10.27;;
27642;SDS011;15053;48.618;10.024;2023-11-22T14:37:37;18.63;;;9.85;;
27642;SDS011;15053;48.618;10.024;2023-11-22T14:40:06;14.70;;;9.25;;
27642;SDS011;15053;48.618;10.024;2023-11-22T14:42:43;15.57;;;8.73;;
27642;SDS011;15053;48.618;10.024;2023-11-22T14:45:18;16.90;;;8.18;;
27642;SDS011;15053;48.618;10.024;2023-11-22T14:47:47;16.15;;;9.38;;
27642;SDS011;15053;48.618;10.024;2023-11-22T14:50:18;14.73;;;8.32;;